createdAt,value
2023-04-15T00:01:19.666Z,0.60
2023-04-15T00:03:48.925Z,0.70
2023-04-15T00:06:19.524Z,0.77
2023-04-15T00:08:47.956Z,2.15
2023-04-15T00:11:16.536Z,1.05
2023-04-15T00:13:45.737Z,0.70
2023-04-15T00:16:14.279Z,1.00
2023-04-15T00:18:43.000Z,1.10
2023-04-15T00:21:11.616Z,0.70
2023-04-15T00:23:41.477Z,0.98
2023-04-15T00:26:09.778Z,0.95
2023-04-15T00:28:38.723Z,1.02
2023-04-15T00:31:07.486Z,0.90
2023-04-15T00:33:36.782Z,1.02
2023-04-15T00:36:08.661Z,1.05
2023-04-15T00:38:39.767Z,0.90
2023-04-15T00:41:10.577Z,1.30
2023-04-15T00:43:39.436Z,1.00
2023-04-15T00:46:08.449Z,1.00
2023-04-15T00:48:37.411Z,1.20
2023-04-15T00:51:05.784Z,0.70
2023-04-15T00:53:36.242Z,1.20
2023-04-15T00:56:04.814Z,1.05
2023-04-15T00:58:34.631Z,0.95
2023-04-15T01:01:03.061Z,1.00
2023-04-15T01:03:31.987Z,1.02
2023-04-15T01:06:03.981Z,1.00
2023-04-15T01:08:32.984Z,1.10
2023-04-15T01:11:03.639Z,1.20
2023-04-15T01:13:32.419Z,1.40
2023-04-15T01:16:03.110Z,1.00
2023-04-15T01:18:32.865Z,1.05
2023-04-15T01:21:02.016Z,0.98
2023-04-15T01:23:31.731Z,0.95
2023-04-15T01:26:03.765Z,1.00
2023-04-15T01:28:33.197Z,0.82
2023-04-15T01:31:11.829Z,1.02
2023-04-15T01:33:40.616Z,1.00
2023-04-15T01:36:27.364Z,1.17
2023-04-15T01:38:59.169Z,0.98
2023-04-15T01:41:29.273Z,1.23
2023-04-15T01:43:58.806Z,0.88
2023-04-15T01:46:29.067Z,0.93
2023-04-15T01:48:59.016Z,1.35
2023-04-15T01:51:29.038Z,1.00
2023-04-15T01:53:58.725Z,1.20
2023-04-15T01:56:31.143Z,1.10
2023-04-15T01:59:01.929Z,0.98
2023-04-15T02:01:31.939Z,0.80
2023-04-15T02:04:02.621Z,1.25
2023-04-15T02:06:34.492Z,1.20
2023-04-15T02:09:04.433Z,1.10
2023-04-15T02:11:36.179Z,1.25
2023-04-15T02:14:07.205Z,1.30
2023-04-15T02:16:36.987Z,1.38
2023-04-15T02:19:08.115Z,1.15
2023-04-15T02:21:40.401Z,0.75
2023-04-15T02:24:12.258Z,0.98
2023-04-15T02:26:46.774Z,1.25
2023-04-15T02:29:18.651Z,1.20
2023-04-15T02:31:48.592Z,1.20
2023-04-15T02:34:18.267Z,1.10
2023-04-15T02:39:25.325Z,1.40
2023-04-15T02:41:56.962Z,0.90
2023-04-15T02:44:27.448Z,1.05
2023-04-15T02:47:01.301Z,1.17
2023-04-15T02:49:31.410Z,1.13
2023-04-15T02:52:00.955Z,1.20
2023-04-15T02:54:31.063Z,1.30
2023-04-15T02:57:02.141Z,1.40
2023-04-15T02:59:32.337Z,1.45
2023-04-15T03:02:02.755Z,1.45
2023-04-15T03:04:32.556Z,1.10
2023-04-15T03:07:03.155Z,0.80
2023-04-15T03:09:33.283Z,0.95
2023-04-15T03:12:06.023Z,0.98
2023-04-15T03:14:35.734Z,1.20
2023-04-15T03:17:05.219Z,1.00
2023-04-15T03:19:35.086Z,1.40
2023-04-15T03:22:05.414Z,1.30
2023-04-15T03:24:35.551Z,1.50
2023-04-15T03:27:08.560Z,1.10
2023-04-15T03:29:38.872Z,1.48
2023-04-15T03:32:08.681Z,1.30
2023-04-15T03:34:38.344Z,1.40
2023-04-15T03:37:08.046Z,1.08
2023-04-15T03:39:37.705Z,1.27
2023-04-15T03:42:08.749Z,0.98
2023-04-15T03:44:38.659Z,1.35
2023-04-15T03:47:08.196Z,1.30
2023-04-15T03:49:37.985Z,1.52
2023-04-15T03:52:07.612Z,0.98
2023-04-15T03:54:37.264Z,1.10
2023-04-15T03:57:08.375Z,1.00
2023-04-15T03:59:38.080Z,1.40
2023-04-15T04:02:07.756Z,1.20
2023-04-15T04:04:37.583Z,1.15
2023-04-15T04:07:07.360Z,1.33
2023-04-15T04:09:39.316Z,1.20
2023-04-15T04:12:10.679Z,0.98
2023-04-15T04:14:40.419Z,1.10
2023-04-15T04:17:10.093Z,1.60
2023-04-15T04:19:40.082Z,1.30
2023-04-15T04:22:09.750Z,1.00
2023-04-15T04:24:39.603Z,1.00
2023-04-15T04:27:10.870Z,1.35
2023-04-15T04:29:40.623Z,1.25
2023-04-15T04:32:10.338Z,1.30
2023-04-15T04:34:40.137Z,1.38
2023-04-15T04:37:09.837Z,1.38
2023-04-15T04:39:39.715Z,0.98
2023-04-15T04:42:10.617Z,1.10
2023-04-15T04:44:40.689Z,1.42
2023-04-15T04:47:10.269Z,1.02
2023-04-15T04:49:39.857Z,1.20
2023-04-15T04:52:10.057Z,0.98
2023-04-15T04:54:39.797Z,1.10
2023-04-15T04:57:10.874Z,1.20
2023-04-15T04:59:40.662Z,1.20
2023-04-15T05:02:10.309Z,1.10
2023-04-15T05:04:42.305Z,1.00
2023-04-15T05:07:12.238Z,1.30
2023-04-15T05:09:42.032Z,1.60
2023-04-15T05:12:15.141Z,1.13
2023-04-15T05:14:44.802Z,1.40
2023-04-15T05:17:14.404Z,1.50
2023-04-15T05:19:44.207Z,1.50
2023-04-15T05:22:13.726Z,1.40
2023-04-15T05:24:43.821Z,1.15
2023-04-15T05:27:15.983Z,1.40
2023-04-15T05:29:45.937Z,1.00
2023-04-15T05:32:15.590Z,1.60
2023-04-15T05:34:45.260Z,1.30
2023-04-15T05:37:15.049Z,1.23
2023-04-15T05:39:44.984Z,1.15
2023-04-15T05:42:16.079Z,1.70
2023-04-15T05:44:45.901Z,1.20
2023-04-15T05:47:15.952Z,1.20
2023-04-15T05:49:45.574Z,1.30
2023-04-15T05:52:15.335Z,1.58
2023-04-15T05:54:45.089Z,1.60
2023-04-15T05:57:15.997Z,1.80
2023-04-15T05:59:49.145Z,1.38
2023-04-15T06:02:19.341Z,1.58
2023-04-15T06:04:49.360Z,1.83
2023-04-15T06:07:19.222Z,1.45
2023-04-15T06:09:49.888Z,1.45
2023-04-15T06:12:21.284Z,1.40
2023-04-15T06:14:51.416Z,1.42
2023-04-15T06:17:20.992Z,1.33
2023-04-15T06:19:55.665Z,1.88
2023-04-15T06:24:55.842Z,1.55
2023-04-15T06:27:27.082Z,1.83
2023-04-15T06:30:00.918Z,1.55
2023-04-15T06:32:32.005Z,1.60
2023-04-15T06:35:02.667Z,1.90
2023-04-15T06:37:32.864Z,1.58
2023-04-15T06:40:05.226Z,1.38
2023-04-15T06:42:36.949Z,1.80
2023-04-15T06:45:10.648Z,1.52
2023-04-15T06:47:41.035Z,1.95
2023-04-15T06:50:11.627Z,1.60
2023-04-15T06:52:45.100Z,1.60
2023-04-15T06:55:14.981Z,1.95
2023-04-15T06:57:46.169Z,1.42
2023-04-15T07:00:18.594Z,1.10
2023-04-15T07:02:50.510Z,1.90
2023-04-15T07:05:20.539Z,2.13
2023-04-15T07:07:50.314Z,1.42
2023-04-15T07:10:20.511Z,1.60
2023-04-15T07:12:51.576Z,1.63
2023-04-15T07:15:22.421Z,1.70
2023-04-15T07:17:52.230Z,1.40
2023-04-15T07:20:22.231Z,2.10
2023-04-15T07:22:52.003Z,1.63
2023-04-15T07:25:21.631Z,1.50
2023-04-15T07:27:54.654Z,1.70
2023-04-15T07:30:24.597Z,1.23
2023-04-15T07:32:54.242Z,1.45
2023-04-15T07:35:24.102Z,1.65
2023-04-15T07:37:53.798Z,1.23
2023-04-15T07:40:23.948Z,1.15
2023-04-15T07:42:55.302Z,1.42
2023-04-15T07:45:25.074Z,1.50
2023-04-15T07:47:56.197Z,1.13
2023-04-15T07:50:26.480Z,1.70
2023-04-15T07:52:56.414Z,1.50
2023-04-15T07:55:27.742Z,1.42
2023-04-15T07:58:02.067Z,1.50
2023-04-15T08:00:32.902Z,1.42
2023-04-15T08:03:04.402Z,1.20
2023-04-15T08:05:34.309Z,1.70
2023-04-15T08:08:04.122Z,1.25
2023-04-15T08:10:34.038Z,1.63
2023-04-15T08:13:04.988Z,1.45
2023-04-15T08:15:37.103Z,1.50
2023-04-15T08:18:07.570Z,1.48
2023-04-15T08:20:40.404Z,2.03
2023-04-15T08:23:10.776Z,1.42
2023-04-15T08:25:40.586Z,1.60
2023-04-15T08:28:12.122Z,1.33
2023-04-15T08:30:43.268Z,1.60
2023-04-15T08:33:13.225Z,1.15
2023-04-15T08:35:42.875Z,1.67
2023-04-15T08:38:12.701Z,1.45
2023-04-15T08:40:43.790Z,1.73
2023-04-15T08:43:20.724Z,1.58
2023-04-15T08:45:52.666Z,1.33
2023-04-15T08:48:24.726Z,1.33
2023-04-15T08:50:54.538Z,1.17
2023-04-15T08:53:26.016Z,1.40
2023-04-15T08:55:56.812Z,1.60
2023-04-15T08:58:27.933Z,1.60
2023-04-15T09:00:58.727Z,1.45
2023-04-15T09:03:28.786Z,1.60
2023-04-15T09:05:59.444Z,1.50
2023-04-15T09:08:29.496Z,1.02
2023-04-15T09:10:59.216Z,1.60
2023-04-15T09:13:30.933Z,1.45
2023-04-15T09:16:04.089Z,1.35
2023-04-15T09:18:35.096Z,1.67
2023-04-15T09:21:09.093Z,1.58
2023-04-15T09:23:39.911Z,1.50
2023-04-15T09:26:09.552Z,1.65
2023-04-15T09:28:46.957Z,1.50
2023-04-15T09:31:17.967Z,1.50
2023-04-15T09:33:57.342Z,1.38
2023-04-15T09:36:29.893Z,1.90
2023-04-15T09:39:00.752Z,1.80
2023-04-15T09:41:30.333Z,1.38
2023-04-15T09:44:01.794Z,2.90
2023-04-15T09:46:44.252Z,1.40
2023-04-15T09:49:14.718Z,1.98
2023-04-15T09:52:01.313Z,1.52
2023-04-15T09:54:37.360Z,2.50
2023-04-15T09:57:08.511Z,1.48
2023-04-15T09:59:40.032Z,1.60
2023-04-15T10:02:09.763Z,1.75
2023-04-15T10:04:42.769Z,1.48
2023-04-15T10:07:13.403Z,2.08
2023-04-15T10:09:45.972Z,1.98
2023-04-15T10:12:16.683Z,1.60
2023-04-15T10:14:50.747Z,1.88
2023-04-15T10:17:23.798Z,1.20
2023-04-15T10:19:55.858Z,1.55
2023-04-15T10:22:28.002Z,1.55
2023-04-15T10:25:00.840Z,1.45
2023-04-15T10:27:30.753Z,2.47
2023-04-15T10:30:03.215Z,2.22
2023-04-15T10:32:38.260Z,1.63
2023-04-15T10:35:09.636Z,1.58
2023-04-15T10:37:40.259Z,1.77
2023-04-15T10:40:28.461Z,1.70
2023-04-15T10:43:02.312Z,2.20
2023-04-15T10:45:37.903Z,1.97
2023-04-15T10:48:09.644Z,1.83
2023-04-15T10:50:40.301Z,1.80
2023-04-15T10:53:12.022Z,1.60
2023-04-15T10:55:47.100Z,1.45
2023-04-15T10:58:16.786Z,1.70
2023-04-15T11:00:53.631Z,1.70
2023-04-15T11:03:39.308Z,1.60
2023-04-15T11:06:09.663Z,1.80
2023-04-15T11:08:56.738Z,1.55
2023-04-15T11:12:00.591Z,1.70
2023-04-15T11:14:30.208Z,1.23
2023-04-15T11:17:02.299Z,1.40
2023-04-15T11:19:38.965Z,2.10
2023-04-15T11:22:10.090Z,1.70
2023-04-15T11:24:50.621Z,1.48
2023-04-15T11:27:24.630Z,1.48
2023-04-15T11:29:54.594Z,1.38
2023-04-15T11:32:27.621Z,1.88
2023-04-15T11:34:58.436Z,1.02
2023-04-15T11:37:31.816Z,1.80
2023-04-15T11:40:04.609Z,1.40
2023-04-15T11:42:48.723Z,1.65
2023-04-15T11:45:19.956Z,1.60
2023-04-15T11:47:51.059Z,1.60
2023-04-15T11:50:22.023Z,2.03
2023-04-15T11:52:57.727Z,1.90
2023-04-15T11:55:27.033Z,2.00
2023-04-15T11:58:09.364Z,2.08
2023-04-15T12:00:38.447Z,1.92
2023-04-15T12:03:24.332Z,2.22
2023-04-15T12:06:21.743Z,1.40
2023-04-15T12:08:55.216Z,1.85
2023-04-15T12:11:33.812Z,1.35
2023-04-15T12:14:12.363Z,1.98
2023-04-15T12:16:47.789Z,2.00
2023-04-15T12:19:26.428Z,1.70
2023-04-15T12:22:00.702Z,2.00
2023-04-15T12:24:33.045Z,1.90
2023-04-15T12:27:04.338Z,1.77
2023-04-15T12:29:33.491Z,1.70
2023-04-15T12:32:07.241Z,2.30
2023-04-15T12:34:38.912Z,1.60
2023-04-15T12:37:13.120Z,1.63
2023-04-15T12:39:46.494Z,2.20
2023-04-15T12:42:16.449Z,2.20
2023-04-15T12:44:45.084Z,1.80
2023-04-15T12:47:14.157Z,2.05
2023-04-15T12:49:43.948Z,1.42
2023-04-15T12:52:12.429Z,1.80
2023-04-15T12:54:41.446Z,2.17
2023-04-15T12:57:10.693Z,1.90
2023-04-15T12:59:39.267Z,1.95
2023-04-15T13:02:08.228Z,1.55
2023-04-15T13:04:36.904Z,1.55
2023-04-15T13:07:06.975Z,1.85
2023-04-15T13:09:36.643Z,1.55
2023-04-15T13:12:05.809Z,2.17
2023-04-15T13:14:34.397Z,2.50
2023-04-15T13:17:04.426Z,2.28
2023-04-15T13:19:33.773Z,2.30
2023-04-15T13:22:02.208Z,2.22
2023-04-15T13:24:32.374Z,2.28
2023-04-15T13:27:01.941Z,2.28
2023-04-15T13:29:30.367Z,2.25
2023-04-15T13:32:01.644Z,2.17
2023-04-15T13:34:30.266Z,2.20
2023-04-15T13:37:01.864Z,2.42
2023-04-15T13:39:34.845Z,1.80
2023-04-15T13:42:03.804Z,2.10
2023-04-15T13:44:32.271Z,2.35
2023-04-15T13:47:01.187Z,2.42
2023-04-15T13:49:30.021Z,2.22
2023-04-15T13:51:58.625Z,2.13
2023-04-15T13:54:37.782Z,2.85
2023-04-15T13:57:08.521Z,2.25
2023-04-15T13:59:37.309Z,2.10
2023-04-15T14:02:05.808Z,2.03
2023-04-15T14:04:35.768Z,2.03
2023-04-15T14:07:05.424Z,1.90
2023-04-15T14:09:35.433Z,2.58
2023-04-15T14:12:04.508Z,2.65
2023-04-15T14:14:34.374Z,2.28
2023-04-15T14:17:04.065Z,2.00
2023-04-15T14:19:32.736Z,2.42
2023-04-15T14:22:04.660Z,2.38
2023-04-15T14:24:33.179Z,2.28
2023-04-15T14:27:02.279Z,2.70
2023-04-15T14:29:31.187Z,1.88
2023-04-15T14:32:02.864Z,1.90
2023-04-15T14:34:41.321Z,2.50
2023-04-15T14:37:09.717Z,2.85
2023-04-15T14:39:38.237Z,2.10
2023-04-15T14:42:09.098Z,2.58
2023-04-15T14:44:37.667Z,2.50
2023-04-15T14:47:08.835Z,2.30
2023-04-15T14:49:40.511Z,2.13
2023-04-15T14:52:09.046Z,2.92
2023-04-15T14:54:37.658Z,2.67
2023-04-15T14:57:06.515Z,2.55
2023-04-15T14:59:35.029Z,2.65
2023-04-15T15:02:04.077Z,2.40
2023-04-15T15:04:34.766Z,2.60
2023-04-15T15:07:03.496Z,3.30
2023-04-15T15:09:33.865Z,2.28
2023-04-15T15:12:03.988Z,2.78
2023-04-15T15:14:33.776Z,2.83
2023-04-15T15:17:04.845Z,2.70
2023-04-15T15:19:34.832Z,2.65
2023-04-15T15:22:04.314Z,2.80
2023-04-15T15:24:33.033Z,2.65
2023-04-15T15:27:02.099Z,2.78
2023-04-15T15:29:30.603Z,2.25
2023-04-15T15:32:01.622Z,3.00
2023-04-15T15:34:32.451Z,2.45
2023-04-15T15:37:03.434Z,2.40
2023-04-15T15:39:34.157Z,1.73
2023-04-15T15:42:03.609Z,2.53
2023-04-15T15:44:33.486Z,2.72
2023-04-15T15:47:03.255Z,2.88
2023-04-15T15:49:34.214Z,2.63
2023-04-15T15:52:04.404Z,3.08
2023-04-15T15:54:37.022Z,2.85
2023-04-15T15:57:05.958Z,3.45
2023-04-15T15:59:34.393Z,2.75
2023-04-15T16:02:03.110Z,2.80
2023-04-15T16:04:31.852Z,2.00
2023-04-15T16:07:00.479Z,1.90
2023-04-15T16:09:30.498Z,2.08
2023-04-15T16:11:59.356Z,1.73
2023-04-15T16:14:27.752Z,1.70
2023-04-15T16:16:56.404Z,1.50
2023-04-15T16:19:24.958Z,1.73
2023-04-15T16:21:53.745Z,1.83
2023-04-15T16:24:22.111Z,2.00
2023-04-15T16:26:51.955Z,1.98
2023-04-15T16:29:22.779Z,2.00
2023-04-15T16:31:51.558Z,1.40
2023-04-15T16:34:20.152Z,1.30
2023-04-15T16:36:49.909Z,1.98
2023-04-15T16:39:19.763Z,1.42
2023-04-15T16:41:48.417Z,1.52
2023-04-15T16:44:18.152Z,1.33
2023-04-15T16:46:46.801Z,1.50
2023-04-15T16:49:15.354Z,1.70
2023-04-15T16:51:43.997Z,1.35
2023-04-15T16:54:12.505Z,1.20
2023-04-15T16:56:41.102Z,1.80
2023-04-15T16:59:11.495Z,1.85
2023-04-15T17:01:42.982Z,1.60
2023-04-15T17:04:11.957Z,2.00
2023-04-15T17:06:40.697Z,1.83
2023-04-15T17:09:09.296Z,2.22
2023-04-15T17:11:40.480Z,2.55
2023-04-15T17:14:09.302Z,2.05
2023-04-15T17:16:42.047Z,2.03
2023-04-15T17:19:14.271Z,1.80
2023-04-15T17:21:58.341Z,2.10
2023-04-15T17:24:28.916Z,2.05
2023-04-15T17:27:05.364Z,1.80
2023-04-15T17:29:37.156Z,1.83
2023-04-15T17:32:31.848Z,2.22
2023-04-15T17:35:23.134Z,2.33
2023-04-15T17:38:11.628Z,3.30
2023-04-15T17:41:00.905Z,2.78
2023-04-15T17:43:49.286Z,2.92
2023-04-15T17:46:37.865Z,3.00
2023-04-15T17:49:26.395Z,3.38
2023-04-15T17:52:16.301Z,3.10
2023-04-15T17:55:05.409Z,3.10
2023-04-15T17:57:53.834Z,3.65
2023-04-15T18:00:42.506Z,4.57
2023-04-15T18:03:34.260Z,4.07
2023-04-15T18:06:23.129Z,3.95
2023-04-15T18:09:12.869Z,4.10
2023-04-15T18:12:02.060Z,4.10
2023-04-15T18:14:53.164Z,3.58
2023-04-15T18:17:41.860Z,3.65
2023-04-15T18:20:16.589Z,4.45
2023-04-15T18:22:50.863Z,3.92
2023-04-15T18:25:21.363Z,3.75
2023-04-15T18:27:50.550Z,4.03
2023-04-15T18:30:19.362Z,4.15
2023-04-15T18:32:48.831Z,3.60
2023-04-15T18:35:18.593Z,2.60
2023-04-15T18:37:48.270Z,3.20
2023-04-15T18:40:18.270Z,3.15
2023-04-15T18:42:49.588Z,3.03
2023-04-15T18:45:18.419Z,3.20
2023-04-15T18:47:46.949Z,2.78
2023-04-15T18:50:15.728Z,2.80
2023-04-15T18:52:44.571Z,4.20
2023-04-15T18:55:13.363Z,2.80
2023-04-15T18:57:45.052Z,2.88
2023-04-15T19:00:16.230Z,3.22
2023-04-15T19:02:45.081Z,2.90
2023-04-15T19:05:13.841Z,2.95
2023-04-15T19:07:42.596Z,2.97
2023-04-15T19:10:11.798Z,3.05
2023-04-15T19:12:41.253Z,3.50
2023-04-15T19:15:10.144Z,3.47
2023-04-15T19:17:40.286Z,3.47
2023-04-15T19:20:09.666Z,3.25
2023-04-15T19:22:38.301Z,4.07
2023-04-15T19:25:07.520Z,3.25
2023-04-15T19:27:36.212Z,2.90
2023-04-15T19:30:05.356Z,2.88
2023-04-15T19:32:33.959Z,3.10
2023-04-15T19:35:03.912Z,2.30
2023-04-15T19:37:33.188Z,2.83
2023-04-15T19:40:03.698Z,2.88
2023-04-15T19:42:32.589Z,2.28
2023-04-15T19:45:01.105Z,3.22
2023-04-15T19:47:35.058Z,2.65
2023-04-15T19:50:06.669Z,2.88
2023-04-15T19:52:35.632Z,2.95
2023-04-15T19:55:04.275Z,2.97
2023-04-15T19:57:34.860Z,2.70
2023-04-15T20:00:03.452Z,3.67
2023-04-15T20:02:35.379Z,2.95
2023-04-15T20:05:09.797Z,2.65
2023-04-15T20:07:42.355Z,3.17
2023-04-15T20:10:13.231Z,3.60
2023-04-15T20:12:51.426Z,3.42
2023-04-15T20:15:24.016Z,3.13
2023-04-15T20:17:52.972Z,3.13
2023-04-15T20:20:23.377Z,3.28
2023-04-15T20:22:53.462Z,3.28
2023-04-15T20:25:22.031Z,3.72
2023-04-15T20:27:51.327Z,3.58
2023-04-15T20:30:20.035Z,3.80
2023-04-15T20:32:48.656Z,3.47
2023-04-15T20:35:17.407Z,3.10
2023-04-15T20:37:47.497Z,3.78
2023-04-15T20:40:16.410Z,3.30
2023-04-15T20:42:46.093Z,3.47
2023-04-15T20:45:14.540Z,3.92
2023-04-15T20:47:43.278Z,4.20
2023-04-15T20:50:12.881Z,3.15
2023-04-15T20:52:41.750Z,3.20
2023-04-15T20:55:11.689Z,3.58
2023-04-15T20:57:40.469Z,3.30
2023-04-15T21:00:11.067Z,3.70
2023-04-15T21:02:40.270Z,3.55
2023-04-15T21:05:09.315Z,3.20
2023-04-15T21:07:37.839Z,3.70
2023-04-15T21:10:06.972Z,3.88
2023-04-15T21:12:37.578Z,3.88
2023-04-15T21:15:06.951Z,3.83
2023-04-15T21:17:36.374Z,3.88
2023-04-15T21:20:05.157Z,3.70
2023-04-15T21:22:36.454Z,3.42
2023-04-15T21:25:05.176Z,3.33
2023-04-15T21:27:35.100Z,3.30
2023-04-15T21:30:06.278Z,2.80
2023-04-15T21:32:35.835Z,3.47
2023-04-15T21:35:04.318Z,3.45
2023-04-15T21:37:32.998Z,3.58
2023-04-15T21:40:01.572Z,2.88
2023-04-15T21:42:32.917Z,3.30
2023-04-15T21:45:01.627Z,2.95
2023-04-15T21:47:32.111Z,2.90
2023-04-15T21:50:20.499Z,3.03
2023-04-15T21:52:49.098Z,5.25
2023-04-15T21:55:18.154Z,2.97
2023-04-15T21:57:46.732Z,3.00
2023-04-15T22:00:16.142Z,2.88
2023-04-15T22:02:46.304Z,2.88
2023-04-15T22:05:15.333Z,2.97
2023-04-15T22:07:43.716Z,2.85
2023-04-15T22:10:12.630Z,2.80
2023-04-15T22:12:41.919Z,3.13
2023-04-15T22:15:11.046Z,2.60
2023-04-15T22:17:39.968Z,3.10
2023-04-15T22:20:11.728Z,3.03
2023-04-15T22:22:43.787Z,2.92
2023-04-15T22:25:13.870Z,2.70
2023-04-15T22:27:42.477Z,2.80
2023-04-15T22:30:11.659Z,3.25
2023-04-15T22:32:40.335Z,2.92
2023-04-15T22:35:10.570Z,3.80
2023-04-15T22:37:38.909Z,2.65
2023-04-15T22:40:09.142Z,2.88
2023-04-15T22:42:37.729Z,3.20
2023-04-15T22:45:07.330Z,3.40
2023-04-15T22:47:36.709Z,3.05
2023-04-15T22:50:06.070Z,2.58
2023-04-15T22:52:36.242Z,2.92
2023-04-15T22:55:05.158Z,2.92
2023-04-15T22:57:33.935Z,3.42
2023-04-15T23:00:02.431Z,3.53
2023-04-15T23:02:34.957Z,3.20
2023-04-15T23:05:12.260Z,3.17
2023-04-15T23:07:42.921Z,3.58
2023-04-15T23:10:11.666Z,3.40
2023-04-15T23:12:40.124Z,3.20
2023-04-15T23:15:10.121Z,3.35
2023-04-15T23:17:38.859Z,3.40
2023-04-15T23:20:08.256Z,3.65
2023-04-15T23:22:37.918Z,3.42
2023-04-15T23:25:08.481Z,3.65
2023-04-15T23:27:37.149Z,3.45
2023-04-15T23:30:06.398Z,3.58
2023-04-15T23:32:34.886Z,3.28
2023-04-15T23:35:03.347Z,3.72
2023-04-15T23:37:33.854Z,3.08
2023-04-15T23:40:02.609Z,3.40
2023-04-15T23:42:34.251Z,4.07
2023-04-15T23:45:04.394Z,3.20
2023-04-15T23:47:34.589Z,3.60
2023-04-15T23:50:04.024Z,3.38
2023-04-15T23:52:32.790Z,4.40
2023-04-15T23:55:01.426Z,3.67
2023-04-15T23:57:37.481Z,4.20
